Time;durP1;ratioP1;P1;durP2;ratioP2;P2;SDS_P1;SDS_P2;PMS_P1;PMS_P2;Temp;Humidity;BMP_temperature;BMP_pressure;BME280_temperature;BME280_humidity;BME280_pressure;Samples;Min_cycle;Max_cycle;Signal;HPM_P1;HPM_P2
2022/09/16 00:03:26;;;;;;;7.82;5.63;;;;;;;14.68;77.26;96120.25;6185400;23;20012;-85
2022/09/16 00:06:16;;;;;;;7.25;5.15;;;;;;;14.69;76.61;96121.03;6183598;23;20021;-86
2022/09/16 00:08:57;;;;;;;6.45;5.85;;;;;;;14.66;75.88;96121.50;6160100;23;20064;-86
2022/09/16 00:25:47;;;;;;;6.90;5.85;;;;;;;14.66;75.69;96122.28;6229696;22;20024;-79
2022/09/16 01:58:39;;;;;;;6.00;5.50;;;;;;;14.83;79.83;96106.75;6174209;23;20028;-82
2022/09/16 02:01:13;;;;;;;8.88;6.22;;;;;;;14.90;80.40;96112.72;6162286;23;20018;-81
2022/09/16 02:03:47;;;;;;;7.45;5.82;;;;;;;14.94;78.10;96113.88;6163668;23;20072;-84
2022/09/16 02:06:19;;;;;;;6.65;6.03;;;;;;;14.98;80.06;96109.81;6162476;23;20025;-81
2022/09/16 02:08:52;;;;;;;8.52;5.43;;;;;;;15.03;81.42;96114.38;6162938;23;20097;-80
2022/09/16 03:02:39;;;;;;;7.28;6.40;;;;;;;15.21;78.98;96124.06;6159426;23;20014;-83
2022/09/16 03:05:08;;;;;;;8.65;6.60;;;;;;;15.15;78.08;96115.25;6163665;23;20051;-81
2022/09/16 03:07:36;;;;;;;7.97;7.28;;;;;;;15.14;78.74;96113.63;6169323;23;20013;-85
2022/09/16 03:10:05;;;;;;;7.60;6.45;;;;;;;15.18;80.22;96114.78;6171064;23;20081;-88
2022/09/16 03:12:55;;;;;;;9.20;7.93;;;;;;;15.21;80.34;96116.97;6172330;23;20021;-83
2022/09/16 03:21:33;;;;;;;7.82;6.90;;;;;;;15.23;80.92;96101.00;6185396;23;20203;-85
2022/09/16 03:37:52;;;;;;;8.20;6.55;;;;;;;15.21;81.62;96082.00;6127495;23;20010;-85
2022/09/16 04:58:25;;;;;;;12.55;9.27;;;;;;;15.02;82.30;96078.63;6175961;23;20018;-79
2022/09/16 05:00:54;;;;;;;11.48;9.48;;;;;;;15.07;83.19;96091.13;6172612;23;20044;-77
2022/09/16 05:03:22;;;;;;;14.15;9.80;;;;;;;15.04;82.91;96081.84;6181225;23;20018;-79
2022/09/16 05:05:53;;;;;;;11.90;9.88;;;;;;;15.04;82.29;96093.16;6181657;23;20057;-79
2022/09/16 05:08:21;;;;;;;11.38;9.23;;;;;;;15.02;82.07;96095.22;6175786;23;20026;-78
2022/09/16 07:13:32;;;;;;;8.85;5.18;;;;;;;14.96;75.71;96111.84;6180686;23;20013;-86
2022/09/16 07:16:08;;;;;;;7.68;5.35;;;;;;;14.92;76.28;96105.44;6215945;23;20009;-86
2022/09/16 07:18:43;;;;;;;5.05;4.28;;;;;;;14.88;75.87;96113.97;6216462;23;20009;-85
2022/09/16 07:21:14;;;;;;;7.38;4.72;;;;;;;14.86;75.57;96118.63;6214342;23;20052;-85
2022/09/16 07:34:18;;;;;;;4.88;3.83;;;;;;;14.78;74.79;96128.44;6106800;23;20037;-83
2022/09/16 07:36:48;;;;;;;5.35;3.50;;;;;;;14.74;73.38;96129.88;6108006;23;20050;-81
2022/09/16 07:39:18;;;;;;;4.90;3.25;;;;;;;14.68;71.90;96129.97;6108612;23;20041;-83
2022/09/16 07:41:47;;;;;;;5.95;3.30;;;;;;;14.63;72.18;96134.03;6105621;23;20082;-80
2022/09/16 07:44:17;;;;;;;3.88;2.90;;;;;;;14.57;71.16;96136.72;6078159;23;20022;-81
2022/09/16 07:54:46;;;;;;;3.88;1.88;;;;;;;14.40;69.90;96136.47;6195730;23;20036;-85
2022/09/16 08:48:42;;;;;;;4.63;3.00;;;;;;;14.83;73.00;96141.69;6180315;23;20029;-84
2022/09/16 08:51:17;;;;;;;4.90;2.40;;;;;;;15.00;70.92;96144.53;6160213;23;20015;-85
2022/09/16 08:53:55;;;;;;;2.25;2.05;;;;;;;15.00;68.47;96139.28;6185711;23;20032;-85
2022/09/16 08:56:33;;;;;;;4.00;1.92;;;;;;;15.00;69.77;96138.47;6159798;23;20029;-85
2022/09/16 11:06:17;;;;;;;3.78;2.42;;;;;;;15.63;66.21;96122.25;6184280;23;20013;-86
2022/09/16 11:08:57;;;;;;;;;;;;;;;15.65;66.33;96127.28;6157222;23;20013;-85
2022/09/16 11:11:49;;;;;;;5.18;2.75;;;;;;;15.61;67.23;96129.56;6133142;23;19916;-86
2022/09/16 11:14:38;;;;;;;3.40;2.33;;;;;;;15.58;65.68;96127.38;6132881;23;20014;-85
2022/09/16 11:17:33;;;;;;;3.05;2.75;;;;;;;15.58;66.76;96123.94;6155489;23;20025;-86
2022/09/16 14:24:39;;;;;;;4.88;1.70;;;;;;;17.03;53.59;96092.69;6207124;23;20008;-86
2022/09/16 17:18:56;;;;;;;1.27;1.00;;;;;;;15.76;62.26;96088.91;6211229;23;20012;-82
2022/09/16 17:24:21;;;;;;;2.40;1.45;;;;;;;15.76;58.87;96084.44;6213730;23;20017;-80
2022/09/16 21:16:22;;;;;;;1.80;1.10;;;;;;;13.42;71.03;96226.91;6126158;23;20021;-87
2022/09/16 23:31:21;;;;;;;1.05;0.80;;;;;;;11.84;72.31;96240.72;6233211;22;20024;-80
2022/09/16 23:33:57;;;;;;;2.78;0.88;;;;;;;11.83;71.72;96239.13;6183501;23;20013;-82
2022/09/16 23:36:42;;;;;;;1.00;0.77;;;;;;;11.83;72.06;96248.75;6184929;23;20025;-81
2022/09/16 23:39:19;;;;;;;0.93;0.77;;;;;;;11.82;72.46;96237.50;6185152;23;20020;-82
2022/09/16 23:41:58;;;;;;;1.67;0.70;;;;;;;11.82;71.75;96231.47;6161615;23;20012;-80
2022/09/16 23:44:38;;;;;;;0.77;0.77;;;;;;;11.81;72.50;96248.97;6160935;23;20021;-79
2022/09/16 23:47:15;;;;;;;1.05;0.95;;;;;;;11.80;72.71;96244.75;6184937;23;20064;-81
2022/09/16 23:50:00;;;;;;;0.90;0.90;;;;;;;11.77;71.89;96242.53;6184047;23;20025;-79
2022/09/16 23:52:54;;;;;;;1.88;1.10;;;;;;;11.74;72.70;96246.34;6184155;23;20005;-81
2022/09/16 23:56:03;;;;;;;2.03;1.23;;;;;;;11.73;72.71;96243.94;6184469;23;20021;-80
2022/09/16 23:58:52;;;;;;;1.33;1.23;;;;;;;11.70;73.56;96239.91;6181882;23;20036;-80
